sensor_id;sensor_type;location;lat;lon;timestamp;pressure;altitude;pressure_sealevel;temperature
40624;BMP280;26325;48.594;11.650;2023-11-19T21:05:33;96490.81;;;11.01
40624;BMP280;26325;48.594;11.650;2023-11-19T21:08:04;96487.72;;;11.03
40624;BMP280;26325;48.594;11.650;2023-11-19T21:10:29;96479.75;;;11.10
40624;BMP280;26325;48.594;11.650;2023-11-19T21:12:55;96472.28;;;11.08
40624;BMP280;26325;48.594;11.650;2023-11-19T21:15:21;96463.56;;;11.19
40624;BMP280;26325;48.594;11.650;2023-11-19T21:17:46;96462.50;;;11.15
40624;BMP280;26325;48.594;11.650;2023-11-19T21:20:12;96459.38;;;11.13
40624;BMP280;26325;48.594;11.650;2023-11-19T21:22:38;96475.59;;;11.30
40624;BMP280;26325;48.594;11.650;2023-11-19T21:25:05;96477.09;;;11.26
40624;BMP280;26325;48.594;11.650;2023-11-19T21:27:31;96480.69;;;11.25
40624;BMP280;26325;48.594;11.650;2023-11-19T21:30:01;96485.16;;;11.29
40624;BMP280;26325;48.594;11.650;2023-11-19T21:32:30;96483.88;;;11.32
40624;BMP280;26325;48.594;11.650;2023-11-19T21:34:55;96480.69;;;11.25
40624;BMP280;26325;48.594;11.650;2023-11-19T21:37:21;96473.66;;;11.21
40624;BMP280;26325;48.594;11.650;2023-11-19T21:39:46;96473.63;;;11.16
40624;BMP280;26325;48.594;11.650;2023-11-19T21:42:12;96478.03;;;11.15
40624;BMP280;26325;48.594;11.650;2023-11-19T21:44:38;96469.81;;;11.23
40624;BMP280;26325;48.594;11.650;2023-11-19T21:47:04;96477.09;;;11.26
40624;BMP280;26325;48.594;11.650;2023-11-19T21:49:29;96477.81;;;11.22
40624;BMP280;26325;48.594;11.650;2023-11-19T21:51:55;96474.34;;;11.11
40624;BMP280;26325;48.594;11.650;2023-11-19T21:54:20;96475.09;;;11.07
40624;BMP280;26325;48.594;11.650;2023-11-19T21:56:46;96487.69;;;10.99
40624;BMP280;26325;48.594;11.650;2023-11-19T21:59:12;96482.31;;;11.05
40624;BMP280;26325;48.594;11.650;2023-11-19T22:01:38;96479.38;;;10.97
40624;BMP280;26325;48.594;11.650;2023-11-19T22:04:04;96488.13;;;10.91
40624;BMP280;26325;48.594;11.650;2023-11-19T22:06:33;96485.72;;;10.84
40624;BMP280;26325;48.594;11.650;2023-11-19T22:08:58;96480.84;;;10.88
40624;BMP280;26325;48.594;11.650;2023-11-19T22:11:24;96484.94;;;10.84
40624;BMP280;26325;48.594;11.650;2023-11-19T22:13:51;96493.66;;;10.78
40624;BMP280;26325;48.594;11.650;2023-11-19T22:16:17;96491.47;;;10.66
40624;BMP280;26325;48.594;11.650;2023-11-19T22:18:42;96477.91;;;10.54
40624;BMP280;26325;48.594;11.650;2023-11-19T22:21:09;96481.03;;;10.56
40624;BMP280;26325;48.594;11.650;2023-11-19T22:23:34;96477.53;;;10.66
40624;BMP280;26325;48.594;11.650;2023-11-19T22:26:00;96481.25;;;10.54
40624;BMP280;26325;48.594;11.650;2023-11-19T22:28:28;96478.22;;;10.57
40624;BMP280;26325;48.594;11.650;2023-11-19T22:30:54;96485.97;;;10.57
40624;BMP280;26325;48.594;11.650;2023-11-19T22:33:20;96484.63;;;10.55
40624;BMP280;26325;48.594;11.650;2023-11-19T22:35:45;96480.06;;;10.62
40624;BMP280;26325;48.594;11.650;2023-11-19T22:38:11;96502.75;;;10.60
40624;BMP280;26325;48.594;11.650;2023-11-19T22:40:37;96503.75;;;10.59
40624;BMP280;26325;48.594;11.650;2023-11-19T22:43:03;96503.25;;;10.57
40624;BMP280;26325;48.594;11.650;2023-11-19T22:45:28;96498.69;;;10.64
40624;BMP280;26325;48.594;11.650;2023-11-19T22:47:54;96503.06;;;10.63
40624;BMP280;26325;48.594;11.650;2023-11-19T22:50:22;96502.16;;;10.53
40624;BMP280;26325;48.594;11.650;2023-11-19T22:52:48;96492.03;;;10.47
40624;BMP280;26325;48.594;11.650;2023-11-19T22:55:13;96501.09;;;10.49
40624;BMP280;26325;48.594;11.650;2023-11-19T22:57:43;96493.75;;;10.41
40624;BMP280;26325;48.594;11.650;2023-11-19T23:00:12;96488.06;;;10.39
40624;BMP280;26325;48.594;11.650;2023-11-19T23:02:48;96485.91;;;10.31
40624;BMP280;26325;48.594;11.650;2023-11-19T23:05:14;96485.72;;;10.38
40624;BMP280;26325;48.594;11.650;2023-11-19T23:07:39;96478.00;;;10.43
40624;BMP280;26325;48.594;11.650;2023-11-19T23:10:05;96490.00;;;10.32
40624;BMP280;26325;48.594;11.650;2023-11-19T23:12:31;96484.56;;;10.29
40624;BMP280;26325;48.594;11.650;2023-11-19T23:14:57;96490.78;;;10.33
40624;BMP280;26325;48.594;11.650;2023-11-19T23:17:30;96495.03;;;10.39
40624;BMP280;26325;48.594;11.650;2023-11-19T23:19:55;96503.69;;;10.49
40624;BMP280;26325;48.594;11.650;2023-11-19T23:22:21;96502.16;;;10.32
40624;BMP280;26325;48.594;11.650;2023-11-19T23:24:47;96503.59;;;10.44
40624;BMP280;26325;48.594;11.650;2023-11-19T23:27:14;96495.44;;;10.52
40624;BMP280;26325;48.594;11.650;2023-11-19T23:29:42;96494.28;;;10.43
40624;BMP280;26325;48.594;11.650;2023-11-19T23:32:08;96502.41;;;10.30
40624;BMP280;26325;48.594;11.650;2023-11-19T23:34:34;96498.81;;;10.31
40624;BMP280;26325;48.594;11.650;2023-11-19T23:37:02;96500.66;;;10.36
40624;BMP280;26325;48.594;11.650;2023-11-19T23:39:28;96496.16;;;10.47
40624;BMP280;26325;48.594;11.650;2023-11-19T23:41:54;96501.97;;;10.38
40624;BMP280;26325;48.594;11.650;2023-11-19T23:44:20;96481.97;;;10.50
40624;BMP280;26325;48.594;11.650;2023-11-19T23:46:47;96497.47;;;10.50
40624;BMP280;26325;48.594;11.650;2023-11-19T23:49:12;96482.47;;;10.47
40624;BMP280;26325;48.594;11.650;2023-11-19T23:51:38;96478.75;;;10.38
40624;BMP280;26325;48.594;11.650;2023-11-19T23:54:07;96477.00;;;10.44
40624;BMP280;26325;48.594;11.650;2023-11-19T23:56:32;96471.56;;;10.40
40624;BMP280;26325;48.594;11.650;2023-11-19T23:58:58;96472.81;;;10.38
